createdAt,value
2019-04-20T00:01:03.271Z,98.90
2019-04-20T00:03:36.791Z,98.90
2019-04-20T00:06:01.467Z,99.30
2019-04-20T00:08:31.997Z,99.70
2019-04-20T00:11:06.901Z,99.90
2019-04-20T00:13:37.835Z,99.90
2019-04-20T00:15:57.823Z,99.90
2019-04-20T00:18:32.811Z,99.90
2019-04-20T00:21:03.904Z,99.90
2019-04-20T00:23:38.372Z,99.90
2019-04-20T00:26:56.445Z,99.90
2019-04-20T00:29:17.705Z,99.90
2019-04-20T00:31:40.259Z,99.90
2019-04-20T00:34:06.157Z,99.90
2019-04-20T00:36:24.790Z,99.90
2019-04-20T00:38:56.983Z,99.90
2019-04-20T00:41:23.072Z,99.90
2019-04-20T00:43:53.275Z,99.90
2019-04-20T00:46:28.135Z,99.90
2019-04-20T00:48:59.394Z,99.90
2019-04-20T00:51:35.193Z,99.90
2019-04-20T00:53:53.516Z,99.90
2019-04-20T00:56:18.446Z,99.90
2019-04-20T00:58:58.096Z,99.90
2019-04-20T01:01:36.136Z,99.90
2019-04-20T01:04:06.514Z,99.90
2019-04-20T01:06:47.753Z,99.90
2019-04-20T01:09:03.392Z,99.90
2019-04-20T01:11:36.814Z,99.90
2019-04-20T01:14:04.397Z,99.90
2019-04-20T01:16:38.636Z,99.90
2019-04-20T01:18:59.595Z,99.90
2019-04-20T01:21:29.741Z,99.90
2019-04-20T01:24:01.506Z,99.90
2019-04-20T01:26:27.610Z,99.90
2019-04-20T01:29:08.713Z,99.90
2019-04-20T01:31:32.424Z,99.90
2019-04-20T01:34:03.079Z,99.90
2019-04-20T01:36:43.105Z,99.90
2019-04-20T01:39:05.005Z,99.90
2019-04-20T01:41:26.419Z,99.90
2019-04-20T01:43:54.398Z,99.90
2019-04-20T01:46:26.315Z,99.90
2019-04-20T01:48:52.563Z,99.90
2019-04-20T01:51:26.372Z,99.90
2019-04-20T01:54:23.199Z,99.90
2019-04-20T01:56:53.378Z,99.90
2019-04-20T01:59:40.100Z,99.90
2019-04-20T02:02:20.058Z,99.90
2019-04-20T02:04:59.462Z,99.90
2019-04-20T02:07:30.682Z,99.90
2019-04-20T02:10:01.922Z,99.90
2019-04-20T02:12:30.474Z,99.90
2019-04-20T02:14:59.384Z,99.90
2019-04-20T02:17:31.982Z,99.90
2019-04-20T02:20:12.585Z,99.90
2019-04-20T02:22:44.717Z,99.90
2019-04-20T02:24:53.026Z,99.90
2019-04-20T02:27:29.929Z,99.90
2019-04-20T02:30:13.511Z,99.90
2019-04-20T02:32:58.938Z,99.90
2019-04-20T02:35:36.109Z,99.90
2019-04-20T02:38:22.555Z,99.90
2019-04-20T02:43:09.599Z,99.90
2019-04-20T02:48:07.695Z,99.90
2019-04-20T02:50:36.198Z,99.90
2019-04-20T02:53:21.945Z,99.90
2019-04-20T03:00:31.108Z,99.90
2019-04-20T03:02:49.870Z,99.90
2019-04-20T03:05:16.543Z,99.90
2019-04-20T03:07:57.611Z,99.90
2019-04-20T03:10:35.461Z,99.90
2019-04-20T03:13:00.809Z,99.90
2019-04-20T03:15:27.094Z,99.90
2019-04-20T03:17:57.256Z,99.90
2019-04-20T03:20:29.956Z,99.90
2019-04-20T03:23:17.520Z,99.90
2019-04-20T03:25:48.338Z,99.90
2019-04-20T03:28:14.252Z,99.90
2019-04-20T03:36:09.341Z,99.90
2019-04-20T03:38:27.161Z,99.90
2019-04-20T03:40:45.292Z,99.90
2019-04-20T03:43:03.906Z,99.90
2019-04-20T03:45:39.178Z,99.90
2019-04-20T03:48:12.620Z,99.90
2019-04-20T03:50:50.446Z,99.90
2019-04-20T03:53:30.488Z,99.90
2019-04-20T03:56:22.797Z,99.90
2019-04-20T03:58:47.170Z,99.90
2019-04-20T04:01:44.139Z,99.90
2019-04-20T04:04:10.662Z,99.90
2019-04-20T04:06:25.167Z,99.90
2019-04-20T04:08:59.939Z,99.90
2019-04-20T04:11:31.248Z,99.90
2019-04-20T04:13:43.809Z,99.90
2019-04-20T04:16:15.078Z,99.90
2019-04-20T04:18:45.573Z,99.90
2019-04-20T04:21:18.587Z,99.90
2019-04-20T04:23:55.846Z,99.90
2019-04-20T04:26:27.471Z,99.90
2019-04-20T04:28:53.794Z,99.90
2019-04-20T04:31:27.637Z,99.90
2019-04-20T04:33:59.390Z,99.90
2019-04-20T04:36:21.243Z,99.90
2019-04-20T04:39:05.426Z,99.90
2019-04-20T04:43:54.133Z,99.90
2019-04-20T04:46:05.852Z,99.90
2019-04-20T04:48:37.515Z,99.90
2019-04-20T04:51:11.329Z,99.90
2019-04-20T04:53:44.367Z,99.90
2019-04-20T04:56:07.165Z,99.90
2019-04-20T04:58:31.930Z,99.90
2019-04-20T05:01:06.602Z,99.90
2019-04-20T05:03:45.997Z,99.90
2019-04-20T05:06:24.445Z,99.90
2019-04-20T05:08:38.751Z,99.90
2019-04-20T05:11:03.213Z,99.90
2019-04-20T05:13:37.998Z,99.90
2019-04-20T05:16:16.888Z,99.90
2019-04-20T05:19:13.552Z,99.90
2019-04-20T05:22:05.376Z,99.90
2019-04-20T05:24:53.617Z,99.90
2019-04-20T05:27:40.093Z,99.90
2019-04-20T05:29:48.661Z,99.90
2019-04-20T05:32:23.638Z,99.90
2019-04-20T05:35:12.156Z,99.90
2019-04-20T05:37:41.412Z,99.90
2019-04-20T05:40:05.978Z,99.90
2019-04-20T05:42:35.921Z,99.90
2019-04-20T05:45:07.300Z,99.90
2019-04-20T05:47:41.197Z,99.90
2019-04-20T05:50:01.457Z,99.90
2019-04-20T05:55:12.813Z,99.90
2019-04-20T05:57:38.905Z,99.90
2019-04-20T06:00:07.123Z,99.90
2019-04-20T06:02:37.866Z,99.90
2019-04-20T06:05:08.495Z,99.90
2019-04-20T06:07:35.947Z,99.90
2019-04-20T06:10:05.997Z,99.90
2019-04-20T06:12:35.740Z,99.90
2019-04-20T06:15:14.426Z,99.90
2019-04-20T06:18:04.768Z,99.90
2019-04-20T06:20:38.045Z,99.90
2019-04-20T06:23:25.653Z,99.90
2019-04-20T06:26:11.031Z,99.90
2019-04-20T06:28:20.103Z,99.90
2019-04-20T06:30:45.223Z,99.90
2019-04-20T06:36:33.622Z,99.90
2019-04-20T06:39:14.148Z,99.90
2019-04-20T06:41:45.186Z,99.90
2019-04-20T06:44:00.660Z,99.90
2019-04-20T06:46:33.406Z,99.90
2019-04-20T06:49:05.729Z,99.90
2019-04-20T06:51:27.966Z,99.90
2019-04-20T06:53:59.615Z,99.90
2019-04-20T06:56:45.450Z,99.90
2019-04-20T06:59:12.515Z,99.90
2019-04-20T07:01:42.193Z,99.90
2019-04-20T07:04:21.162Z,99.90
2019-04-20T07:06:50.439Z,99.90
2019-04-20T07:09:15.291Z,99.90
2019-04-20T07:11:37.417Z,99.90
2019-04-20T07:13:55.668Z,99.90
2019-04-20T07:16:44.774Z,99.90
2019-04-20T07:19:22.899Z,99.90
2019-04-20T07:22:19.751Z,99.90
2019-04-20T07:24:43.127Z,99.90
2019-04-20T07:27:03.101Z,99.90
2019-04-20T07:29:52.234Z,99.90
2019-04-20T07:31:58.803Z,99.90
2019-04-20T07:34:33.731Z,99.90
2019-04-20T07:37:28.201Z,99.90
2019-04-20T07:39:36.399Z,99.90
2019-04-20T07:42:08.960Z,99.90
2019-04-20T07:44:43.959Z,99.90
2019-04-20T07:47:08.856Z,99.90
2019-04-20T07:49:30.136Z,99.90
2019-04-20T07:51:49.520Z,99.90
2019-04-20T07:54:47.616Z,99.90
2019-04-20T07:57:04.022Z,99.90
2019-04-20T07:59:27.791Z,99.90
2019-04-20T08:02:21.396Z,99.90
2019-04-20T08:04:55.041Z,99.90
2019-04-20T08:07:12.723Z,99.90
2019-04-20T08:09:49.690Z,99.90
2019-04-20T08:12:51.572Z,99.90
2019-04-20T08:15:28.175Z,99.90
2019-04-20T08:17:50.949Z,99.90
2019-04-20T08:20:15.835Z,99.90
2019-04-20T08:22:47.500Z,99.90
2019-04-20T08:25:12.670Z,99.90
2019-04-20T08:27:27.655Z,99.90
2019-04-20T08:30:28.127Z,99.90
2019-04-20T08:32:58.280Z,99.90
2019-04-20T08:35:39.260Z,99.90
2019-04-20T08:38:32.358Z,99.90
2019-04-20T08:40:37.611Z,99.90
2019-04-20T08:43:20.158Z,99.90
2019-04-20T08:45:41.982Z,99.90
2019-04-20T08:48:11.019Z,99.90
2019-04-20T08:50:35.327Z,99.90
2019-04-20T08:53:14.513Z,99.90
2019-04-20T08:55:33.193Z,99.90
2019-04-20T08:57:46.693Z,99.90
2019-04-20T09:00:18.245Z,99.90
2019-04-20T09:02:51.961Z,99.80
2019-04-20T09:05:30.386Z,99.80
2019-04-20T09:07:58.462Z,99.50
2019-04-20T09:10:34.405Z,98.90
2019-04-20T09:12:57.440Z,99.40
2019-04-20T09:15:16.826Z,98.70
2019-04-20T09:17:54.795Z,98.20
2019-04-20T09:20:31.830Z,97.80
2019-04-20T09:23:13.386Z,97.20
2019-04-20T09:25:57.712Z,97.10
2019-04-20T09:28:18.913Z,96.70
2019-04-20T09:30:53.439Z,96.90
2019-04-20T09:33:48.608Z,95.80
2019-04-20T09:36:16.646Z,95.60
2019-04-20T09:38:59.849Z,95.30
2019-04-20T09:41:47.041Z,93.80
2019-04-20T09:43:54.108Z,94.10
2019-04-20T09:46:22.251Z,94.30
2019-04-20T09:48:57.043Z,93.90
2019-04-20T09:51:38.820Z,93.20
2019-04-20T09:54:01.804Z,92.60
2019-04-20T09:56:34.509Z,92.40
2019-04-20T09:59:09.525Z,92.40
2019-04-20T10:01:30.334Z,92.10
2019-04-20T10:03:47.111Z,92.10
2019-04-20T10:06:24.338Z,91.20
2019-04-20T10:08:51.436Z,90.00
2019-04-20T10:11:17.260Z,90.40
2019-04-20T10:14:04.365Z,90.20
2019-04-20T10:16:33.598Z,89.50
2019-04-20T10:19:01.276Z,88.20
2019-04-20T10:21:29.890Z,88.80
2019-04-20T10:23:58.868Z,85.80
2019-04-20T10:26:27.053Z,84.30
2019-04-20T10:28:55.274Z,83.90
2019-04-20T10:31:24.430Z,84.50
2019-04-20T10:33:53.396Z,84.00
2019-04-20T10:36:39.603Z,83.60
2019-04-20T10:39:10.702Z,81.70
2019-04-20T10:41:46.977Z,81.70
2019-04-20T10:44:09.091Z,80.60
2019-04-20T10:46:36.950Z,79.10
2019-04-20T10:49:06.540Z,79.80
2019-04-20T10:51:37.810Z,79.10
2019-04-20T10:54:08.640Z,77.10
2019-04-20T10:56:37.282Z,76.80
2019-04-20T10:59:05.554Z,75.70
2019-04-20T11:01:33.734Z,73.60
2019-04-20T11:04:02.866Z,72.80
2019-04-20T11:06:32.740Z,72.60
2019-04-20T11:09:00.442Z,71.80
2019-04-20T11:11:30.326Z,71.80
2019-04-20T11:13:59.887Z,71.90
2019-04-20T11:16:26.766Z,70.70
2019-04-20T11:18:55.503Z,71.60
2019-04-20T11:21:24.627Z,68.20
2019-04-20T11:23:52.442Z,68.60
2019-04-20T11:26:20.220Z,68.70
2019-04-20T11:28:48.355Z,66.40
2019-04-20T11:31:16.596Z,65.40
2019-04-20T11:33:44.348Z,67.10
2019-04-20T11:36:12.935Z,65.50
2019-04-20T11:38:40.846Z,64.60
2019-04-20T11:41:17.664Z,64.20
2019-04-20T11:43:37.814Z,64.40
2019-04-20T11:46:06.584Z,63.20
2019-04-20T11:48:34.325Z,61.10
2019-04-20T11:51:03.409Z,61.40
2019-04-20T11:53:32.277Z,60.00
2019-04-20T11:56:00.455Z,60.00
2019-04-20T11:58:28.173Z,57.50
2019-04-20T12:01:06.276Z,58.00
2019-04-20T12:03:34.227Z,58.00
2019-04-20T12:06:04.707Z,58.30
2019-04-20T12:08:31.171Z,55.50
2019-04-20T12:11:03.112Z,53.30
2019-04-20T12:13:29.017Z,55.20
2019-04-20T12:15:56.877Z,55.10
2019-04-20T12:18:25.376Z,54.60
2019-04-20T12:20:54.683Z,55.30
2019-04-20T12:23:24.470Z,54.80
2019-04-20T12:25:54.380Z,54.70
2019-04-20T12:28:22.237Z,52.50
2019-04-20T12:30:49.812Z,52.10
2019-04-20T12:33:17.787Z,50.90
2019-04-20T12:35:45.415Z,52.60
2019-04-20T12:38:14.906Z,52.60
2019-04-20T12:40:43.992Z,51.60
2019-04-20T12:43:13.119Z,51.70
2019-04-20T12:45:47.711Z,52.10
2019-04-20T12:48:15.628Z,52.30
2019-04-20T12:50:43.816Z,52.00
2019-04-20T12:53:17.174Z,50.20
2019-04-20T12:55:44.718Z,50.70
2019-04-20T12:58:12.618Z,50.90
2019-04-20T13:00:49.799Z,51.60
2019-04-20T13:03:17.551Z,50.60
2019-04-20T13:06:05.891Z,50.20
2019-04-20T13:08:42.225Z,49.70
2019-04-20T13:11:13.060Z,49.00
2019-04-20T13:13:53.042Z,49.20
2019-04-20T13:16:28.421Z,50.80
2019-04-20T13:19:01.609Z,49.90
2019-04-20T13:21:29.552Z,49.90
2019-04-20T13:23:57.124Z,49.80
2019-04-20T13:26:40.930Z,50.70
2019-04-20T13:29:09.069Z,48.90
2019-04-20T13:31:37.722Z,48.50
2019-04-20T13:34:05.807Z,48.80
2019-04-20T13:36:40.036Z,50.50
2019-04-20T13:39:08.246Z,48.80
2019-04-20T13:41:36.002Z,48.60
2019-04-20T13:44:04.854Z,48.80
2019-04-20T13:46:33.400Z,48.30
2019-04-20T13:49:11.494Z,47.40
2019-04-20T13:51:41.880Z,49.30
2019-04-20T13:54:15.119Z,47.70
2019-04-20T13:56:45.848Z,48.10
2019-04-20T13:59:28.034Z,47.40
2019-04-20T14:02:24.931Z,47.10
2019-04-20T14:04:58.752Z,48.00
2019-04-20T14:07:29.236Z,48.40
2019-04-20T14:09:59.405Z,47.00
2019-04-20T14:12:32.401Z,47.40
2019-04-20T14:14:57.297Z,48.60
2019-04-20T14:17:25.208Z,46.90
2019-04-20T14:19:54.852Z,46.50
2019-04-20T14:22:24.907Z,46.10
2019-04-20T14:24:53.265Z,46.80
2019-04-20T14:27:24.604Z,46.70
2019-04-20T14:29:53.299Z,45.70
2019-04-20T14:32:21.181Z,45.80
2019-04-20T14:34:49.033Z,44.70
2019-04-20T14:37:26.749Z,44.90
2019-04-20T14:39:54.500Z,45.90
2019-04-20T14:42:30.635Z,45.60
2019-04-20T14:44:52.092Z,44.70
2019-04-20T14:47:23.624Z,44.50
2019-04-20T14:49:52.614Z,45.40
2019-04-20T14:52:21.650Z,46.20
2019-04-20T14:54:49.817Z,45.40
2019-04-20T14:57:17.547Z,46.10
2019-04-20T14:59:54.082Z,46.10
2019-04-20T15:02:25.744Z,45.70
2019-04-20T15:04:54.821Z,45.50
2019-04-20T15:07:22.629Z,45.60
2019-04-20T15:09:51.046Z,45.50
2019-04-20T15:12:19.018Z,45.70
2019-04-20T15:14:46.903Z,45.40
2019-04-20T15:17:25.556Z,46.00
2019-04-20T15:20:15.194Z,45.20
2019-04-20T15:22:48.017Z,44.50
2019-04-20T15:25:15.837Z,44.30
2019-04-20T15:27:46.243Z,44.70
2019-04-20T15:30:14.632Z,45.50
2019-04-20T15:32:43.070Z,45.50
2019-04-20T15:35:11.568Z,44.20
2019-04-20T15:37:42.447Z,45.20
2019-04-20T15:40:10.936Z,44.20
2019-04-20T15:42:52.545Z,43.10
2019-04-20T15:45:11.569Z,43.60
2019-04-20T15:47:43.976Z,43.30
2019-04-20T15:50:12.027Z,45.00
2019-04-20T15:52:44.606Z,43.90
2019-04-20T15:55:18.603Z,43.70
2019-04-20T15:57:38.805Z,44.00
2019-04-20T16:00:08.595Z,44.10
2019-04-20T16:02:47.310Z,45.80
2019-04-20T16:05:40.923Z,43.40
2019-04-20T16:08:28.268Z,44.20
2019-04-20T16:10:57.218Z,44.90
2019-04-20T16:13:33.243Z,44.80
2019-04-20T16:15:56.356Z,44.20
2019-04-20T16:18:25.117Z,44.30
2019-04-20T16:21:01.564Z,44.00
2019-04-20T16:23:22.805Z,43.80
2019-04-20T16:26:05.547Z,44.10
2019-04-20T16:28:33.611Z,44.60
2019-04-20T16:31:01.515Z,44.60
2019-04-20T16:33:32.328Z,44.10
2019-04-20T16:36:00.613Z,43.40
2019-04-20T16:38:30.392Z,43.60
2019-04-20T16:40:57.834Z,44.30
2019-04-20T16:43:31.966Z,44.00
2019-04-20T16:45:55.121Z,43.80
2019-04-20T16:48:24.097Z,43.90
2019-04-20T16:50:53.023Z,44.80
2019-04-20T16:53:20.982Z,45.20
2019-04-20T16:55:48.642Z,45.50
2019-04-20T16:58:17.754Z,45.80
2019-04-20T17:00:45.569Z,45.80
2019-04-20T17:03:13.207Z,46.10
2019-04-20T17:05:43.191Z,47.10
2019-04-20T17:08:11.234Z,45.60
2019-04-20T17:10:39.080Z,45.20
2019-04-20T17:13:06.782Z,46.50
2019-04-20T17:15:34.603Z,46.00
2019-04-20T17:18:03.394Z,46.50
2019-04-20T17:20:32.573Z,46.40
2019-04-20T17:23:02.059Z,47.10
2019-04-20T17:25:30.058Z,47.20
2019-04-20T17:28:07.100Z,46.90
2019-04-20T17:30:59.003Z,47.30
2019-04-20T17:33:47.397Z,47.80
2019-04-20T17:36:14.535Z,48.00
2019-04-20T17:38:43.171Z,48.00
2019-04-20T17:41:28.572Z,48.30
2019-04-20T17:43:56.697Z,48.80
2019-04-20T17:46:12.117Z,48.50
2019-04-20T17:48:43.243Z,48.80
2019-04-20T17:51:23.511Z,49.00
2019-04-20T17:54:05.299Z,49.00
2019-04-20T17:56:36.300Z,49.70
2019-04-20T17:59:04.236Z,49.60
2019-04-20T18:02:13.194Z,49.80
2019-04-20T18:05:02.527Z,50.20
2019-04-20T18:07:26.948Z,49.50
2019-04-20T18:09:49.218Z,50.00
2019-04-20T18:12:05.237Z,50.10
2019-04-20T18:14:45.925Z,50.60
2019-04-20T18:17:32.089Z,50.80
2019-04-20T18:19:54.490Z,51.60
2019-04-20T18:22:23.512Z,52.10
2019-04-20T18:25:13.523Z,53.20
2019-04-20T18:27:41.367Z,53.60
2019-04-20T18:30:06.872Z,53.90
2019-04-20T18:32:27.547Z,54.40
2019-04-20T18:35:04.539Z,55.10
2019-04-20T18:37:32.365Z,55.70
2019-04-20T18:40:06.006Z,56.30
2019-04-20T18:42:36.760Z,56.50
2019-04-20T18:45:18.442Z,57.30
2019-04-20T18:47:45.743Z,57.00
2019-04-20T18:50:09.417Z,57.50
2019-04-20T18:52:27.599Z,58.10
2019-04-20T18:54:55.724Z,59.70
2019-04-20T18:57:29.652Z,58.70
2019-04-20T18:59:57.231Z,60.00
2019-04-20T19:02:32.637Z,60.90
2019-04-20T19:04:58.064Z,61.00
2019-04-20T19:07:24.231Z,62.40
2019-04-20T19:09:53.273Z,62.70
2019-04-20T19:12:34.539Z,63.00
2019-04-20T19:15:37.323Z,63.20
2019-04-20T19:18:06.950Z,64.90
2019-04-20T19:20:29.018Z,64.90
2019-04-20T19:22:57.992Z,65.50
2019-04-20T19:25:31.038Z,66.50
2019-04-20T19:27:57.508Z,66.80
2019-04-20T19:30:35.339Z,67.90
2019-04-20T19:33:09.093Z,68.80
2019-04-20T19:35:37.618Z,70.10
2019-04-20T19:38:04.271Z,70.50
2019-04-20T19:40:37.524Z,70.40
2019-04-20T19:43:04.761Z,71.30
2019-04-20T19:46:06.620Z,71.90
2019-04-20T19:48:09.631Z,73.00
2019-04-20T19:50:41.326Z,73.80
2019-04-20T19:53:18.681Z,74.50
2019-04-20T19:55:31.337Z,75.10
2019-04-20T19:58:01.416Z,75.40
2019-04-20T20:00:42.972Z,73.50
2019-04-20T20:03:11.995Z,74.50
2019-04-20T20:05:44.898Z,74.70
2019-04-20T20:08:15.045Z,74.20
2019-04-20T20:10:41.226Z,73.70
2019-04-20T20:13:09.543Z,73.10
2019-04-20T20:15:39.558Z,76.00
2019-04-20T20:18:27.537Z,76.30
2019-04-20T20:20:57.776Z,76.90
2019-04-20T20:23:05.911Z,77.40
2019-04-20T20:25:39.195Z,77.30
2019-04-20T20:28:17.036Z,74.80
2019-04-20T20:30:48.184Z,76.00
2019-04-20T20:33:24.419Z,72.40
2019-04-20T20:35:43.513Z,74.10
2019-04-20T20:38:13.376Z,73.40
2019-04-20T20:40:36.381Z,72.60
2019-04-20T20:43:11.885Z,73.90
2019-04-20T20:45:39.643Z,75.40
2019-04-20T20:48:22.409Z,76.30
2019-04-20T20:50:48.838Z,77.60
2019-04-20T20:53:12.545Z,78.10
2019-04-20T20:55:40.224Z,77.00
2019-04-20T20:58:10.295Z,78.40
2019-04-20T21:00:41.871Z,79.50
2019-04-20T21:03:05.650Z,78.90
2019-04-20T21:05:29.479Z,79.50
2019-04-20T21:07:57.502Z,79.50
2019-04-20T21:10:34.259Z,80.60
2019-04-20T21:12:57.831Z,78.00
2019-04-20T21:15:26.443Z,77.10
2019-04-20T21:18:15.428Z,77.80
2019-04-20T21:20:44.564Z,77.20
2019-04-20T21:23:06.973Z,77.10
2019-04-20T21:25:34.543Z,77.20
2019-04-20T21:28:00.683Z,77.80
2019-04-20T21:30:37.414Z,77.90
2019-04-20T21:33:03.720Z,79.00
2019-04-20T21:35:36.888Z,78.80
2019-04-20T21:38:06.104Z,78.90
2019-04-20T21:40:36.178Z,79.90
2019-04-20T21:43:02.366Z,81.30
2019-04-20T21:45:32.617Z,81.90
2019-04-20T21:48:03.387Z,82.80
2019-04-20T21:50:44.783Z,80.60
2019-04-20T21:53:06.062Z,81.10
2019-04-20T21:55:25.920Z,80.20
2019-04-20T21:57:58.468Z,79.40
2019-04-20T22:00:42.530Z,79.80
2019-04-20T22:03:09.060Z,78.90
2019-04-20T22:05:35.037Z,79.20
2019-04-20T22:08:07.287Z,81.10
2019-04-20T22:10:32.978Z,81.30
2019-04-20T22:13:02.720Z,81.60
2019-04-20T22:15:34.997Z,83.10
2019-04-20T22:18:07.950Z,84.40
2019-04-20T22:20:49.624Z,85.10
2019-04-20T22:23:15.788Z,84.00
2019-04-20T22:25:54.505Z,85.30
2019-04-20T22:28:05.762Z,86.30
2019-04-20T22:30:35.816Z,87.80
2019-04-20T22:33:08.013Z,86.90
2019-04-20T22:35:42.805Z,87.60
2019-04-20T22:38:17.243Z,87.20
2019-04-20T22:40:44.687Z,87.40
2019-04-20T22:43:12.556Z,86.60
2019-04-20T22:45:45.710Z,88.00
2019-04-20T22:48:13.851Z,88.70
2019-04-20T22:51:03.258Z,88.80
2019-04-20T22:53:22.690Z,89.50
2019-04-20T22:56:01.245Z,90.50
2019-04-20T22:58:23.569Z,90.60
2019-04-20T23:00:45.233Z,90.50
2019-04-20T23:03:07.181Z,90.90
2019-04-20T23:05:34.864Z,91.50
2019-04-20T23:08:02.556Z,91.60
2019-04-20T23:10:34.741Z,91.80
2019-04-20T23:12:59.698Z,91.40
2019-04-20T23:15:28.050Z,92.30
2019-04-20T23:17:56.064Z,92.70
2019-04-20T23:20:27.731Z,92.60
2019-04-20T23:22:53.128Z,93.20
2019-04-20T23:25:20.925Z,93.70
2019-04-20T23:27:51.230Z,94.20
2019-04-20T23:30:23.631Z,95.00
2019-04-20T23:32:47.507Z,95.90
2019-04-20T23:35:18.551Z,96.40
2019-04-20T23:37:46.302Z,97.50
2019-04-20T23:40:15.389Z,97.70
2019-04-20T23:42:49.439Z,98.30
2019-04-20T23:45:45.545Z,98.90
2019-04-20T23:48:18.475Z,99.60
2019-04-20T23:51:02.746Z,99.90
2019-04-20T23:53:35.092Z,99.90
2019-04-20T23:55:45.732Z,99.90
2019-04-20T23:58:14.722Z,99.90
